BAW26J LGAV-HEAX
Flight info
| Callsign | BAW26J |
|---|---|
| Flight time | 1h 16m |
| Altitude | 37000 |
| Route | KEA1E KEA UL607 PAXIS L607 NABSI DCT |
| Aircraft | A319/M-SDE2E3FGHIJ1RWXY/S |
Departure
| Time | 2026-05-04 12:10 |
|---|---|
| Airport | Athens Eleftherios Venizelos International Airport (LGAV) |
Arrival
| Time | 2026-05-04 13:26 |
|---|---|
| Airport | Alexandria International Airport (HEAX) |
| Time | Latitude | Longitude | Altitude | Speed | Heading |
|---|---|---|---|---|---|
| 2026-05-04 11:47 | 37.93563 | 23.94811 | 287 ft | 0 kts | 318° |
| 2026-05-04 12:00 | 37.93562 | 23.94812 | 284 ft | 2 kts | 318° |
| 2026-05-04 12:00 | 37.93543 | 23.94834 | 291 ft | 4 kts | 318° |
| 2026-05-04 12:00 | 37.93527 | 23.94852 | 284 ft | 4 kts | 314° |
| 2026-05-04 12:00 | 37.93514 | 23.94877 | 284 ft | 4 kts | 265° |
| 2026-05-04 12:01 | 37.93525 | 23.94898 | 285 ft | 4 kts | 215° |
| 2026-05-04 12:01 | 37.93542 | 23.94913 | 287 ft | 0 kts | 217° |
| 2026-05-04 12:04 | 37.93538 | 23.94910 | 290 ft | 2 kts | 216° |
| 2026-05-04 12:04 | 37.93516 | 23.94890 | 284 ft | 5 kts | 216° |
| 2026-05-04 12:04 | 37.93484 | 23.94860 | 284 ft | 6 kts | 216° |
| 2026-05-04 12:04 | 37.93446 | 23.94824 | 286 ft | 8 kts | 217° |
| 2026-05-04 12:05 | 37.93417 | 23.94795 | 285 ft | 8 kts | 218° |
| 2026-05-04 12:05 | 37.93368 | 23.94747 | 289 ft | 10 kts | 216° |
| 2026-05-04 12:05 | 37.93311 | 23.94694 | 290 ft | 11 kts | 216° |
| 2026-05-04 12:05 | 37.93238 | 23.94627 | 286 ft | 10 kts | 216° |
| 2026-05-04 12:06 | 37.93171 | 23.94599 | 287 ft | 11 kts | 189° |
| 2026-05-04 12:06 | 37.93118 | 23.94597 | 287 ft | 12 kts | 169° |
| 2026-05-04 12:06 | 37.93055 | 23.94665 | 287 ft | 13 kts | 143° |
| 2026-05-04 12:06 | 37.92975 | 23.94638 | 291 ft | 13 kts | 217° |
| 2026-05-04 12:07 | 37.92895 | 23.94563 | 288 ft | 15 kts | 217° |
| 2026-05-04 12:07 | 37.92810 | 23.94482 | 293 ft | 16 kts | 217° |
| 2026-05-04 12:07 | 37.92718 | 23.94395 | 294 ft | 17 kts | 217° |
| 2026-05-04 12:07 | 37.92620 | 23.94300 | 295 ft | 18 kts | 217° |
| 2026-05-04 12:08 | 37.92522 | 23.94207 | 296 ft | 15 kts | 217° |
| 2026-05-04 12:08 | 37.92440 | 23.94165 | 296 ft | 13 kts | 169° |
| 2026-05-04 12:08 | 37.92413 | 23.94263 | 292 ft | 14 kts | 90° |
| 2026-05-04 12:08 | 37.92408 | 23.94376 | 293 ft | 8 kts | 76° |
| 2026-05-04 12:09 | 37.92424 | 23.94397 | 295 ft | 8 kts | 34° |
| 2026-05-04 12:09 | 37.92624 | 23.94586 | 290 ft | 66 kts | 37° |
| 2026-05-04 12:09 | 37.93149 | 23.95083 | 287 ft | 121 kts | 37° |
| 2026-05-04 12:09 | 37.93959 | 23.95851 | 364 ft | 161 kts | 38° |
| 2026-05-04 12:10 | 37.94852 | 23.96689 | 1092 ft | 159 kts | 36° |
| 2026-05-04 12:10 | 37.95743 | 23.97541 | 1693 ft | 167 kts | 30° |
| 2026-05-04 12:10 | 37.96732 | 23.98482 | 2043 ft | 189 kts | 32° |
| 2026-05-04 12:10 | 37.97855 | 23.99553 | 2433 ft | 215 kts | 33° |
| 2026-05-04 12:11 | 37.99085 | 24.00732 | 3138 ft | 230 kts | 34° |
| 2026-05-04 12:11 | 38.00370 | 24.01991 | 4074 ft | 238 kts | 37° |
| 2026-05-04 12:11 | 38.01377 | 24.03798 | 4683 ft | 268 kts | 68° |
| 2026-05-04 12:11 | 38.01468 | 24.06194 | 5547 ft | 283 kts | 102° |
| 2026-05-04 12:12 | 38.00491 | 24.08362 | 6518 ft | 289 kts | 137° |
| 2026-05-04 12:12 | 37.98821 | 24.09787 | 7458 ft | 291 kts | 151° |
| 2026-05-04 12:12 | 37.97020 | 24.11009 | 8376 ft | 296 kts | 153° |
| 2026-05-04 12:12 | 37.95166 | 24.12188 | 9258 ft | 301 kts | 153° |
| 2026-05-04 12:13 | 37.93271 | 24.13380 | 10136 ft | 306 kts | 153° |
| 2026-05-04 12:14 | 37.78793 | 24.24964 | 14328 ft | 373 kts | 144° |
| 2026-05-04 12:15 | 37.76640 | 24.26815 | 15025 ft | 374 kts | 144° |
| 2026-05-04 12:15 | 37.74480 | 24.28662 | 15743 ft | 375 kts | 144° |
| 2026-05-04 12:15 | 37.72311 | 24.30508 | 16464 ft | 377 kts | 145° |
| 2026-05-04 12:15 | 37.70131 | 24.32357 | 17180 ft | 378 kts | 145° |
| 2026-05-04 12:16 | 37.67945 | 24.34213 | 17898 ft | 379 kts | 145° |
| 2026-05-04 12:16 | 37.65748 | 24.36079 | 18585 ft | 382 kts | 145° |
| 2026-05-04 12:16 | 37.63537 | 24.37956 | 19183 ft | 385 kts | 145° |
| 2026-05-04 12:16 | 37.61327 | 24.39833 | 19666 ft | 391 kts | 145° |
| 2026-05-04 12:17 | 37.59031 | 24.41780 | 20223 ft | 394 kts | 145° |
| 2026-05-04 12:17 | 37.56752 | 24.43715 | 20844 ft | 396 kts | 145° |
| 2026-05-04 12:17 | 37.54459 | 24.45663 | 21390 ft | 400 kts | 144° |
| 2026-05-04 12:17 | 37.52172 | 24.47602 | 21940 ft | 403 kts | 145° |
| 2026-05-04 12:18 | 37.49840 | 24.49576 | 22485 ft | 406 kts | 144° |
| 2026-05-04 12:18 | 37.47489 | 24.51563 | 22994 ft | 409 kts | 144° |
| 2026-05-04 12:18 | 37.45114 | 24.53563 | 23537 ft | 411 kts | 145° |
| 2026-05-04 12:18 | 37.42730 | 24.55568 | 24014 ft | 414 kts | 145° |
| 2026-05-04 12:19 | 37.40320 | 24.57597 | 24367 ft | 419 kts | 145° |
| 2026-05-04 12:19 | 37.37888 | 24.59647 | 24723 ft | 423 kts | 145° |
| 2026-05-04 12:19 | 37.35426 | 24.61721 | 25009 ft | 430 kts | 146° |
| 2026-05-04 12:19 | 37.32918 | 24.63833 | 25247 ft | 438 kts | 146° |
| 2026-05-04 12:20 | 37.30369 | 24.65976 | 25565 ft | 443 kts | 146° |
| 2026-05-04 12:20 | 37.27796 | 24.68135 | 25894 ft | 447 kts | 146° |
| 2026-05-04 12:20 | 37.25194 | 24.70315 | 26216 ft | 452 kts | 146° |
| 2026-05-04 12:20 | 37.22563 | 24.72513 | 26548 ft | 456 kts | 146° |
| 2026-05-04 12:21 | 37.19906 | 24.74732 | 26875 ft | 461 kts | 146° |
| 2026-05-04 12:21 | 37.17230 | 24.76968 | 27203 ft | 465 kts | 146° |
| 2026-05-04 12:21 | 37.14526 | 24.79231 | 27534 ft | 469 kts | 146° |
| 2026-05-04 12:21 | 37.11797 | 24.81516 | 27865 ft | 473 kts | 146° |
| 2026-05-04 12:22 | 37.09048 | 24.83818 | 28156 ft | 478 kts | 147° |
| 2026-05-04 12:22 | 37.06260 | 24.86148 | 28349 ft | 486 kts | 147° |
| 2026-05-04 12:22 | 37.03428 | 24.88509 | 28634 ft | 490 kts | 147° |
| 2026-05-04 12:22 | 37.00576 | 24.90882 | 28942 ft | 495 kts | 147° |
| 2026-05-04 12:23 | 36.97701 | 24.93269 | 29249 ft | 498 kts | 147° |
| 2026-05-04 12:23 | 36.94797 | 24.95680 | 29553 ft | 502 kts | 147° |
| 2026-05-04 12:23 | 36.91876 | 24.98099 | 29845 ft | 506 kts | 147° |
| 2026-05-04 12:23 | 36.88930 | 25.00537 | 30136 ft | 510 kts | 147° |
| 2026-05-04 12:24 | 36.85972 | 25.02985 | 30488 ft | 510 kts | 147° |
| 2026-05-04 12:24 | 36.83008 | 25.05435 | 30811 ft | 511 kts | 147° |
| 2026-05-04 12:24 | 36.80031 | 25.07890 | 30967 ft | 516 kts | 148° |
| 2026-05-04 12:24 | 36.77020 | 25.10372 | 31128 ft | 521 kts | 148° |
| 2026-05-04 12:25 | 36.73989 | 25.12873 | 31363 ft | 523 kts | 147° |
| 2026-05-04 12:25 | 36.70955 | 25.15383 | 31702 ft | 523 kts | 147° |
| 2026-05-04 12:25 | 36.67924 | 25.17888 | 32084 ft | 522 kts | 147° |
| 2026-05-04 12:25 | 36.64897 | 25.20383 | 32486 ft | 521 kts | 147° |
| 2026-05-04 12:26 | 36.61874 | 25.22867 | 32873 ft | 520 kts | 147° |
| 2026-05-04 12:26 | 36.58856 | 25.25341 | 33265 ft | 519 kts | 147° |
| 2026-05-04 12:26 | 36.55845 | 25.27810 | 33662 ft | 518 kts | 147° |
| 2026-05-04 12:26 | 36.52876 | 25.30245 | 34012 ft | 518 kts | 148° |
| 2026-05-04 12:27 | 36.49867 | 25.32711 | 34368 ft | 517 kts | 148° |
| 2026-05-04 12:27 | 36.46869 | 25.35163 | 34763 ft | 516 kts | 148° |
| 2026-05-04 12:27 | 36.43876 | 25.37610 | 35150 ft | 514 kts | 148° |
| 2026-05-04 12:27 | 36.40896 | 25.40042 | 35513 ft | 512 kts | 148° |
| 2026-05-04 12:28 | 36.37924 | 25.42466 | 35855 ft | 511 kts | 148° |
| 2026-05-04 12:28 | 36.34957 | 25.44883 | 36205 ft | 509 kts | 148° |
| 2026-05-04 12:28 | 36.32004 | 25.47288 | 36538 ft | 508 kts | 148° |
| 2026-05-04 12:28 | 36.29066 | 25.49678 | 36860 ft | 506 kts | 148° |
| 2026-05-04 12:29 | 36.26115 | 25.52074 | 37077 ft | 506 kts | 148° |
| 2026-05-04 12:29 | 36.23164 | 25.54470 | 37134 ft | 505 kts | 148° |
| 2026-05-04 12:29 | 36.17286 | 25.59236 | 37126 ft | 504 kts | 148° |
| 2026-05-04 12:30 | 36.11427 | 25.63984 | 37125 ft | 504 kts | 148° |
| 2026-05-04 12:30 | 36.05561 | 25.68728 | 37120 ft | 504 kts | 148° |
| 2026-05-04 12:31 | 35.99649 | 25.73490 | 37096 ft | 509 kts | 149° |
| 2026-05-04 12:31 | 35.93705 | 25.78266 | 37098 ft | 510 kts | 149° |
| 2026-05-04 12:32 | 35.84781 | 25.85445 | 37102 ft | 511 kts | 149° |
| 2026-05-04 12:33 | 35.78823 | 25.90225 | 37103 ft | 511 kts | 149° |
| 2026-05-04 12:33 | 35.72862 | 25.94988 | 37108 ft | 511 kts | 149° |
| 2026-05-04 12:34 | 35.66889 | 25.99755 | 37101 ft | 511 kts | 149° |
| 2026-05-04 12:34 | 35.60910 | 26.04513 | 37094 ft | 512 kts | 150° |
| 2026-05-04 12:35 | 35.54971 | 26.09238 | 37093 ft | 512 kts | 149° |
| 2026-05-04 12:35 | 35.48990 | 26.14000 | 37094 ft | 512 kts | 150° |
| 2026-05-04 12:36 | 35.43000 | 26.18745 | 37100 ft | 512 kts | 150° |
| 2026-05-04 12:36 | 35.37006 | 26.23483 | 37106 ft | 513 kts | 150° |
| 2026-05-04 12:37 | 35.31013 | 26.28216 | 37107 ft | 513 kts | 150° |
| 2026-05-04 12:37 | 35.25020 | 26.32945 | 37109 ft | 512 kts | 150° |
| 2026-05-04 12:38 | 35.19024 | 26.37665 | 37107 ft | 512 kts | 150° |
| 2026-05-04 12:38 | 35.13029 | 26.42376 | 37081 ft | 512 kts | 150° |
| 2026-05-04 12:39 | 35.07031 | 26.47082 | 37083 ft | 512 kts | 150° |
| 2026-05-04 12:39 | 35.01032 | 26.51777 | 37083 ft | 512 kts | 150° |
| 2026-05-04 12:40 | 34.95025 | 26.56471 | 37087 ft | 512 kts | 150° |
| 2026-05-04 12:40 | 34.89022 | 26.61151 | 37064 ft | 511 kts | 151° |
| 2026-05-04 12:41 | 34.83032 | 26.65818 | 37075 ft | 511 kts | 151° |
| 2026-05-04 12:41 | 34.77039 | 26.70479 | 37080 ft | 511 kts | 152° |
| 2026-05-04 12:42 | 34.71050 | 26.75129 | 37080 ft | 511 kts | 152° |
| 2026-05-04 12:42 | 34.65050 | 26.79771 | 37081 ft | 511 kts | 152° |
| 2026-05-04 12:43 | 34.59054 | 26.84407 | 37065 ft | 511 kts | 152° |
| 2026-05-04 12:43 | 34.53050 | 26.89052 | 37098 ft | 512 kts | 152° |
| 2026-05-04 12:44 | 34.47044 | 26.93686 | 37101 ft | 511 kts | 152° |
| 2026-05-04 12:44 | 34.41036 | 26.98307 | 37099 ft | 511 kts | 152° |
| 2026-05-04 12:45 | 34.35034 | 27.02906 | 37096 ft | 511 kts | 152° |
| 2026-05-04 12:45 | 34.29028 | 27.07511 | 37070 ft | 511 kts | 153° |
| 2026-05-04 12:46 | 34.23028 | 27.12105 | 37080 ft | 510 kts | 153° |
| 2026-05-04 12:46 | 34.17032 | 27.16690 | 37086 ft | 510 kts | 153° |
| 2026-05-04 12:47 | 34.11037 | 27.21262 | 37101 ft | 510 kts | 153° |
| 2026-05-04 12:47 | 34.05044 | 27.25824 | 37096 ft | 509 kts | 153° |
| 2026-05-04 12:48 | 33.99056 | 27.30380 | 37085 ft | 509 kts | 153° |
| 2026-05-04 12:48 | 33.93072 | 27.34937 | 37093 ft | 509 kts | 152° |
| 2026-05-04 12:49 | 33.87170 | 27.39663 | 37093 ft | 510 kts | 151° |
| 2026-05-04 12:49 | 33.82300 | 27.43665 | 37095 ft | 510 kts | 151° |
| 2026-05-04 12:50 | 33.76434 | 27.48449 | 37091 ft | 509 kts | 152° |
| 2026-05-04 12:50 | 33.70542 | 27.53179 | 37077 ft | 509 kts | 152° |
| 2026-05-04 12:51 | 33.64655 | 27.57872 | 37089 ft | 509 kts | 152° |
| 2026-05-04 12:51 | 33.58760 | 27.62569 | 37091 ft | 509 kts | 152° |
| 2026-05-04 12:52 | 33.52871 | 27.67269 | 37095 ft | 508 kts | 152° |
| 2026-05-04 12:52 | 33.46984 | 27.71968 | 37094 ft | 508 kts | 152° |
| 2026-05-04 12:53 | 33.41091 | 27.76663 | 37087 ft | 510 kts | 152° |
| 2026-05-04 12:53 | 33.35187 | 27.81349 | 37096 ft | 509 kts | 152° |
| 2026-05-04 12:54 | 33.29283 | 27.86036 | 37094 ft | 509 kts | 152° |
| 2026-05-04 12:54 | 33.23388 | 27.90712 | 37094 ft | 509 kts | 152° |
| 2026-05-04 12:55 | 33.17483 | 27.95377 | 37098 ft | 508 kts | 153° |
| 2026-05-04 12:55 | 33.11586 | 28.00027 | 37078 ft | 508 kts | 153° |
| 2026-05-04 12:56 | 33.05688 | 28.04670 | 37095 ft | 508 kts | 153° |
| 2026-05-04 12:56 | 32.99796 | 28.09293 | 37099 ft | 507 kts | 153° |
| 2026-05-04 12:57 | 32.93910 | 28.13920 | 37098 ft | 507 kts | 153° |
| 2026-05-04 12:57 | 32.88026 | 28.18539 | 37099 ft | 507 kts | 153° |
| 2026-05-04 12:58 | 32.82149 | 28.23150 | 37088 ft | 505 kts | 153° |
| 2026-05-04 12:58 | 32.76278 | 28.27741 | 37107 ft | 504 kts | 153° |
| 2026-05-04 12:59 | 32.70412 | 28.32308 | 37108 ft | 504 kts | 153° |
| 2026-05-04 12:59 | 32.64559 | 28.36872 | 37116 ft | 502 kts | 153° |
| 2026-05-04 13:00 | 32.58732 | 28.41412 | 37122 ft | 500 kts | 153° |
| 2026-05-04 13:00 | 32.52912 | 28.45934 | 37117 ft | 499 kts | 154° |
| 2026-05-04 13:01 | 32.47096 | 28.50434 | 37116 ft | 499 kts | 154° |
| 2026-05-04 13:01 | 32.41288 | 28.54928 | 37113 ft | 499 kts | 154° |
| 2026-05-04 13:02 | 32.35481 | 28.59416 | 37112 ft | 498 kts | 154° |
| 2026-05-04 13:02 | 32.29679 | 28.63892 | 37109 ft | 498 kts | 154° |
| 2026-05-04 13:03 | 32.23877 | 28.68360 | 37079 ft | 497 kts | 154° |
| 2026-05-04 13:03 | 32.18090 | 28.72824 | 37087 ft | 497 kts | 154° |
| 2026-05-04 13:04 | 32.12302 | 28.77277 | 37096 ft | 496 kts | 154° |
| 2026-05-04 13:04 | 32.06513 | 28.81710 | 37095 ft | 496 kts | 154° |
| 2026-05-04 13:05 | 32.00726 | 28.86138 | 36759 ft | 496 kts | 154° |
| 2026-05-04 13:05 | 31.97824 | 28.88354 | 36457 ft | 496 kts | 154° |
| 2026-05-04 13:05 | 31.94926 | 28.90564 | 36201 ft | 496 kts | 154° |
| 2026-05-04 13:05 | 31.92028 | 28.92772 | 35961 ft | 497 kts | 154° |
| 2026-05-04 13:06 | 31.89130 | 28.94982 | 35708 ft | 497 kts | 154° |
| 2026-05-04 13:06 | 31.86230 | 28.97196 | 35196 ft | 498 kts | 154° |
| 2026-05-04 13:06 | 31.83295 | 28.99431 | 34248 ft | 506 kts | 154° |
| 2026-05-04 13:06 | 31.80317 | 29.01694 | 33159 ft | 511 kts | 154° |
| 2026-05-04 13:07 | 31.77334 | 29.03963 | 32172 ft | 510 kts | 154° |
| 2026-05-04 13:07 | 31.74417 | 29.06378 | 31073 ft | 518 kts | 147° |
| 2026-05-04 13:07 | 31.71771 | 29.09295 | 30049 ft | 525 kts | 138° |
| 2026-05-04 13:07 | 31.69423 | 29.12626 | 28785 ft | 533 kts | 133° |
| 2026-05-04 13:08 | 31.67115 | 29.16051 | 27525 ft | 537 kts | 133° |
| 2026-05-04 13:08 | 31.64786 | 29.19492 | 26210 ft | 541 kts | 133° |
| 2026-05-04 13:08 | 31.62426 | 29.22965 | 24904 ft | 547 kts | 133° |
| 2026-05-04 13:08 | 31.60070 | 29.26428 | 24134 ft | 539 kts | 133° |
| 2026-05-04 13:09 | 31.57744 | 29.29849 | 23123 ft | 535 kts | 133° |
| 2026-05-04 13:09 | 31.55440 | 29.33236 | 22240 ft | 527 kts | 133° |
| 2026-05-04 13:09 | 31.53171 | 29.36571 | 21371 ft | 519 kts | 133° |
| 2026-05-04 13:09 | 31.50935 | 29.39853 | 20516 ft | 512 kts | 132° |
| 2026-05-04 13:10 | 31.48725 | 29.43094 | 19664 ft | 506 kts | 132° |
| 2026-05-04 13:10 | 31.46537 | 29.46295 | 18819 ft | 501 kts | 132° |
| 2026-05-04 13:10 | 31.44375 | 29.49453 | 18036 ft | 491 kts | 132° |
| 2026-05-04 13:10 | 31.42259 | 29.52544 | 16905 ft | 483 kts | 132° |
| 2026-05-04 13:11 | 31.40175 | 29.55586 | 15847 ft | 475 kts | 131° |
| 2026-05-04 13:11 | 31.38126 | 29.58576 | 14859 ft | 466 kts | 131° |
| 2026-05-04 13:11 | 31.36114 | 29.61511 | 14048 ft | 457 kts | 131° |
| 2026-05-04 13:11 | 31.34189 | 29.64324 | 13908 ft | 429 kts | 131° |
| 2026-05-04 13:12 | 31.32392 | 29.66954 | 13758 ft | 399 kts | 131° |
| 2026-05-04 13:12 | 31.30711 | 29.69408 | 13428 ft | 378 kts | 132° |
| 2026-05-04 13:12 | 31.29081 | 29.71773 | 12775 ft | 370 kts | 132° |
| 2026-05-04 13:12 | 31.27478 | 29.74092 | 12109 ft | 364 kts | 132° |
| 2026-05-04 13:13 | 31.25898 | 29.76374 | 11453 ft | 358 kts | 132° |
| 2026-05-04 13:13 | 31.24343 | 29.78621 | 10827 ft | 353 kts | 132° |
| 2026-05-04 13:13 | 31.22810 | 29.80836 | 10204 ft | 348 kts | 132° |
| 2026-05-04 13:13 | 31.21300 | 29.83022 | 9543 ft | 343 kts | 131° |
| 2026-05-04 13:14 | 31.19837 | 29.85147 | 9257 ft | 326 kts | 131° |
| 2026-05-04 13:14 | 31.18446 | 29.87172 | 8872 ft | 315 kts | 131° |
| 2026-05-04 13:14 | 31.17087 | 29.89143 | 8545 ft | 305 kts | 131° |
| 2026-05-04 13:14 | 31.15792 | 29.91020 | 8412 ft | 291 kts | 131° |
| 2026-05-04 13:15 | 31.14530 | 29.92845 | 8288 ft | 287 kts | 131° |
| 2026-05-04 13:15 | 31.13276 | 29.94657 | 8158 ft | 287 kts | 131° |
| 2026-05-04 13:15 | 31.12037 | 29.96441 | 8043 ft | 286 kts | 131° |
| 2026-05-04 13:15 | 31.10598 | 29.97997 | 7915 ft | 280 kts | 150° |
| 2026-05-04 13:16 | 31.08847 | 29.98969 | 7758 ft | 272 kts | 168° |
| 2026-05-04 13:16 | 31.07005 | 29.99302 | 7634 ft | 265 kts | 185° |
| 2026-05-04 13:16 | 31.05212 | 29.99029 | 7512 ft | 257 kts | 202° |
| 2026-05-04 13:16 | 31.03528 | 29.98368 | 7387 ft | 255 kts | 205° |
| 2026-05-04 13:17 | 31.01867 | 29.97707 | 7266 ft | 255 kts | 204° |
| 2026-05-04 13:17 | 31.00189 | 29.97046 | 7143 ft | 255 kts | 204° |
| 2026-05-04 13:17 | 30.98509 | 29.96388 | 6887 ft | 255 kts | 203° |
| 2026-05-04 13:17 | 30.96801 | 29.95718 | 6570 ft | 256 kts | 204° |
| 2026-05-04 13:18 | 30.95131 | 29.95063 | 6225 ft | 258 kts | 202° |
| 2026-05-04 13:18 | 30.93424 | 29.94398 | 5872 ft | 259 kts | 204° |
| 2026-05-04 13:18 | 30.91690 | 29.93721 | 5523 ft | 260 kts | 204° |
| 2026-05-04 13:18 | 30.89972 | 29.93050 | 5177 ft | 260 kts | 202° |
| 2026-05-04 13:19 | 30.88254 | 29.92379 | 4825 ft | 261 kts | 204° |
| 2026-05-04 13:19 | 30.86527 | 29.91702 | 4470 ft | 262 kts | 203° |
| 2026-05-04 13:19 | 30.84795 | 29.91024 | 4124 ft | 262 kts | 202° |
| 2026-05-04 13:19 | 30.83092 | 29.90357 | 3775 ft | 262 kts | 203° |
| 2026-05-04 13:20 | 30.81363 | 29.89673 | 3429 ft | 262 kts | 204° |
| 2026-05-04 13:20 | 30.79839 | 29.88610 | 3079 ft | 251 kts | 227° |
| 2026-05-04 13:20 | 30.78752 | 29.87055 | 2729 ft | 247 kts | 239° |
| 2026-05-04 13:20 | 30.77763 | 29.85425 | 2372 ft | 244 kts | 247° |
| 2026-05-04 13:21 | 30.77429 | 29.83581 | 2048 ft | 227 kts | 280° |
| 2026-05-04 13:21 | 30.77937 | 29.81977 | 1972 ft | 199 kts | 308° |
| 2026-05-04 13:21 | 30.78869 | 29.80939 | 1981 ft | 176 kts | 323° |
| 2026-05-04 13:21 | 30.79824 | 29.80105 | 1985 ft | 168 kts | 322° |
| 2026-05-04 13:22 | 30.80756 | 29.79286 | 1983 ft | 167 kts | 322° |
| 2026-05-04 13:22 | 30.81675 | 29.78481 | 1991 ft | 162 kts | 322° |
| 2026-05-04 13:22 | 30.82541 | 29.77721 | 1991 ft | 155 kts | 322° |
| 2026-05-04 13:22 | 30.83398 | 29.76970 | 1869 ft | 153 kts | 322° |
| 2026-05-04 13:23 | 30.84230 | 29.76240 | 1709 ft | 147 kts | 322° |
| 2026-05-04 13:23 | 30.85032 | 29.75537 | 1540 ft | 143 kts | 321° |
| 2026-05-04 13:23 | 30.85807 | 29.74857 | 1346 ft | 132 kts | 321° |
| 2026-05-04 13:23 | 30.86513 | 29.74238 | 1177 ft | 123 kts | 321° |
| 2026-05-04 13:24 | 30.87186 | 29.73650 | 1006 ft | 120 kts | 320° |
| 2026-05-04 13:24 | 30.87851 | 29.73069 | 857 ft | 121 kts | 322° |
| 2026-05-04 13:24 | 30.88522 | 29.72486 | 699 ft | 121 kts | 321° |
| 2026-05-04 13:25 | 30.89850 | 29.71318 | 364 ft | 119 kts | 320° |
| 2026-05-04 13:25 | 30.90504 | 29.70737 | 216 ft | 118 kts | 319° |
| 2026-05-04 13:25 | 30.91111 | 29.70195 | 161 ft | 98 kts | 321° |
| 2026-05-04 13:25 | 30.91532 | 29.69826 | 162 ft | 63 kts | 324° |
| 2026-05-04 13:26 | 30.91890 | 29.69514 | 160 ft | 65 kts | 322° |
| 2026-05-04 13:26 | 30.92231 | 29.69219 | 164 ft | 48 kts | 323° |
| 2026-05-04 13:26 | 30.92430 | 29.69049 | 163 ft | 20 kts | 326° |
| 2026-05-04 13:26 | 30.92525 | 29.69072 | 163 ft | 14 kts | 47° |
| 2026-05-04 13:27 | 30.92590 | 29.69167 | 164 ft | 16 kts | 52° |
| 2026-05-04 13:27 | 30.92662 | 29.69276 | 164 ft | 18 kts | 53° |
| 2026-05-04 13:27 | 30.92740 | 29.69397 | 165 ft | 20 kts | 53° |
| 2026-05-04 13:27 | 30.92790 | 29.69523 | 165 ft | 12 kts | 112° |
| 2026-05-04 13:28 | 30.92833 | 29.69567 | 165 ft | 9 kts | 33° |
| 2026-05-04 13:28 | 30.92889 | 29.69618 | 165 ft | 11 kts | 39° |
| 2026-05-04 13:28 | 30.92962 | 29.69602 | 166 ft | 12 kts | 323° |
| 2026-05-04 13:28 | 30.93040 | 29.69533 | 166 ft | 12 kts | 322° |
| 2026-05-04 13:29 | 30.93100 | 29.69505 | 167 ft | 7 kts | 37° |
| 2026-05-04 13:29 | 30.93124 | 29.69551 | 167 ft | 5 kts | 51° |
| 2026-05-04 13:29 | 30.93140 | 29.69571 | 167 ft | 2 kts | 33° |
| 2026-05-04 13:29 | 30.93145 | 29.69574 | 167 ft | 0 kts | 29° |